createdAt,value
2022-12-18T00:00:00.377Z,86.48
2022-12-18T00:01:00.418Z,86.48
2022-12-18T00:02:00.648Z,86.48
2022-12-18T00:03:00.766Z,86.48
2022-12-18T00:04:00.855Z,86.80
2022-12-18T00:05:00.761Z,86.80
2022-12-18T00:06:00.843Z,86.73
2022-12-18T00:07:00.923Z,86.94
2022-12-18T00:08:01.024Z,87.16
2022-12-18T00:09:01.074Z,87.37
2022-12-18T00:10:01.172Z,87.58
2022-12-18T00:11:01.221Z,87.79
2022-12-18T00:13:03.817Z,87.79
2022-12-18T00:14:01.440Z,87.79
2022-12-18T00:15:01.504Z,87.79
2022-12-18T00:16:01.644Z,87.79
2022-12-18T00:17:01.672Z,87.69
2022-12-18T00:18:01.737Z,87.69
2022-12-18T00:19:01.795Z,87.69
2022-12-18T00:20:01.897Z,87.69
2022-12-18T00:21:01.959Z,87.90
2022-12-18T00:22:02.021Z,87.90
2022-12-18T00:23:02.075Z,87.86
2022-12-18T00:24:02.159Z,87.86
2022-12-18T00:25:02.231Z,87.86
2022-12-18T00:26:02.301Z,87.75
2022-12-18T00:27:02.360Z,87.65
2022-12-18T00:28:02.469Z,87.50
2022-12-18T00:29:02.519Z,87.29
2022-12-18T00:30:02.624Z,87.33
2022-12-18T00:31:02.739Z,87.29
2022-12-18T00:32:02.870Z,87.18
2022-12-18T00:33:02.827Z,87.08
2022-12-18T00:34:02.907Z,86.87
2022-12-18T00:35:02.987Z,86.87
2022-12-18T00:36:03.070Z,86.87
2022-12-18T00:37:03.128Z,86.91
2022-12-18T00:38:03.232Z,87.01
2022-12-18T00:39:03.282Z,87.23
2022-12-18T00:40:03.384Z,87.43
2022-12-18T00:41:03.442Z,87.54
2022-12-18T00:42:03.553Z,87.61
2022-12-18T00:43:03.560Z,87.50
2022-12-18T00:44:03.643Z,87.18
2022-12-18T00:45:09.033Z,87.08
2022-12-18T00:46:03.842Z,86.98
2022-12-18T00:47:03.858Z,87.08
2022-12-18T00:48:03.936Z,87.18
2022-12-18T00:49:04.009Z,87.18
2022-12-18T00:50:04.122Z,87.08
2022-12-18T00:51:04.186Z,87.08
2022-12-18T00:52:04.271Z,87.08
2022-12-18T00:53:04.435Z,86.98
2022-12-18T00:54:04.402Z,87.08
2022-12-18T00:55:06.507Z,87.08
2022-12-18T00:56:04.532Z,87.12
2022-12-18T00:57:04.589Z,87.01
2022-12-18T00:58:04.682Z,87.23
2022-12-18T00:59:04.729Z,87.54
2022-12-18T01:00:04.881Z,87.33
2022-12-18T01:01:05.619Z,87.33
2022-12-18T01:02:05.171Z,87.43
2022-12-18T01:03:05.148Z,87.43
2022-12-18T01:04:05.133Z,87.33
2022-12-18T01:05:05.215Z,87.12
2022-12-18T01:06:05.278Z,87.12
2022-12-18T01:07:05.329Z,87.23
2022-12-18T01:08:05.411Z,87.08
2022-12-18T01:09:05.490Z,86.98
2022-12-18T01:10:05.589Z,86.66
2022-12-18T01:11:05.640Z,86.48
2022-12-18T01:12:05.718Z,86.48
2022-12-18T01:13:05.772Z,86.48
2022-12-18T01:14:05.847Z,86.69
2022-12-18T01:15:05.948Z,86.80
2022-12-18T01:16:06.077Z,87.12
2022-12-18T01:17:06.105Z,87.23
2022-12-18T01:18:06.159Z,87.23
2022-12-18T01:19:06.248Z,87.23
2022-12-18T01:20:06.312Z,86.91
2022-12-18T01:21:06.399Z,86.94
2022-12-18T01:22:06.453Z,87.12
2022-12-18T01:23:06.535Z,87.26
2022-12-18T01:24:06.596Z,87.26
2022-12-18T01:25:06.694Z,87.33
2022-12-18T01:26:06.748Z,87.26
2022-12-18T01:27:06.823Z,87.16
2022-12-18T01:28:06.906Z,87.05
2022-12-18T01:29:06.988Z,87.19
2022-12-18T01:30:07.057Z,87.58
2022-12-18T01:31:07.138Z,87.58
2022-12-18T01:32:07.229Z,87.79
2022-12-18T01:33:07.282Z,87.62
2022-12-18T01:34:07.337Z,87.73
2022-12-18T01:35:07.449Z,87.83
2022-12-18T01:36:07.489Z,87.73
2022-12-18T01:37:07.569Z,87.94
2022-12-18T01:38:07.625Z,87.90
2022-12-18T01:39:07.757Z,87.73
2022-12-18T01:40:07.788Z,87.62
2022-12-18T01:41:07.853Z,88.04
2022-12-18T01:42:07.909Z,87.94
2022-12-18T01:43:08.002Z,88.04
2022-12-18T01:44:08.053Z,88.36
2022-12-18T01:45:08.154Z,88.26
2022-12-18T01:46:08.237Z,88.04
2022-12-18T01:47:08.290Z,87.94
2022-12-18T01:48:08.344Z,87.94
2022-12-18T01:49:08.427Z,87.83
2022-12-18T01:50:08.512Z,87.73
2022-12-18T01:51:08.571Z,87.98
2022-12-18T01:52:08.641Z,88.29
2022-12-18T01:53:08.701Z,88.29
2022-12-18T01:54:08.780Z,88.36
2022-12-18T01:55:08.897Z,88.26
2022-12-18T01:56:08.943Z,87.94
2022-12-18T01:57:09.043Z,87.73
2022-12-18T01:58:09.107Z,87.51
2022-12-18T01:59:09.192Z,87.51
2022-12-18T02:00:09.265Z,87.51
2022-12-18T02:01:09.379Z,87.41
2022-12-18T02:02:09.580Z,87.41
2022-12-18T02:03:09.520Z,87.62
2022-12-18T02:04:09.552Z,87.83
2022-12-18T02:05:09.634Z,87.94
2022-12-18T02:06:09.685Z,87.83
2022-12-18T02:07:09.794Z,87.73
2022-12-18T02:08:09.854Z,87.83
2022-12-18T02:09:09.910Z,87.73
2022-12-18T02:10:10.041Z,87.83
2022-12-18T02:11:10.066Z,87.83
2022-12-18T02:12:10.145Z,87.83
2022-12-18T02:13:10.209Z,87.83
2022-12-18T02:14:10.295Z,87.83
2022-12-18T02:15:10.393Z,87.62
2022-12-18T02:16:10.486Z,87.77
2022-12-18T02:17:10.511Z,87.94
2022-12-18T02:18:10.586Z,87.83
2022-12-18T02:19:10.642Z,88.04
2022-12-18T02:20:10.735Z,87.83
2022-12-18T02:21:10.784Z,87.51
2022-12-18T02:22:10.864Z,87.62
2022-12-18T02:23:10.918Z,87.51
2022-12-18T02:24:11.019Z,87.41
2022-12-18T02:25:11.089Z,87.41
2022-12-18T02:26:11.170Z,87.30
2022-12-18T02:27:11.245Z,87.30
2022-12-18T02:28:11.342Z,87.30
2022-12-18T02:29:11.422Z,87.41
2022-12-18T02:30:11.522Z,87.51
2022-12-18T02:31:11.611Z,87.51
2022-12-18T02:32:11.661Z,87.41
2022-12-18T02:33:11.712Z,87.30
2022-12-18T02:34:11.794Z,87.30
2022-12-18T02:35:11.858Z,87.30
2022-12-18T02:36:11.939Z,87.30
2022-12-18T02:37:11.995Z,87.16
2022-12-18T02:38:12.085Z,86.94
2022-12-18T02:39:12.143Z,86.73
2022-12-18T02:40:12.232Z,86.52
2022-12-18T02:41:12.268Z,86.52
2022-12-18T02:42:12.348Z,86.52
2022-12-18T02:43:12.405Z,86.46
2022-12-18T02:44:12.490Z,86.77
2022-12-18T02:45:12.559Z,87.09
2022-12-18T02:46:12.717Z,86.99
2022-12-18T02:47:12.727Z,86.88
2022-12-18T02:48:12.807Z,87.09
2022-12-18T02:49:12.864Z,86.99
2022-12-18T02:50:12.968Z,86.81
2022-12-18T02:51:13.016Z,87.02
2022-12-18T02:52:13.109Z,87.24
2022-12-18T02:53:13.167Z,87.24
2022-12-18T02:54:13.264Z,87.13
2022-12-18T02:55:13.434Z,87.24
2022-12-18T02:56:13.425Z,87.24
2022-12-18T02:57:13.470Z,87.34
2022-12-18T02:58:13.548Z,87.38
2022-12-18T02:59:13.604Z,87.49
2022-12-18T03:00:13.728Z,87.81
2022-12-18T03:01:13.901Z,87.91
2022-12-18T03:02:14.091Z,87.81
2022-12-18T03:03:14.011Z,87.81
2022-12-18T03:04:14.057Z,87.81
2022-12-18T03:05:14.132Z,88.02
2022-12-18T03:06:14.187Z,88.23
2022-12-18T03:07:14.271Z,88.23
2022-12-18T03:08:14.350Z,88.37
2022-12-18T03:09:14.403Z,88.44
2022-12-18T03:10:14.502Z,88.44
2022-12-18T03:11:14.558Z,88.55
2022-12-18T03:12:14.638Z,88.44
2022-12-18T03:13:14.695Z,88.44
2022-12-18T03:14:14.795Z,88.48
2022-12-18T03:15:17.827Z,88.65
2022-12-18T03:16:15.062Z,88.65
2022-12-18T03:17:15.003Z,88.55
2022-12-18T03:18:15.095Z,88.87
2022-12-18T03:19:15.151Z,88.76
2022-12-18T03:20:15.273Z,88.76
2022-12-18T03:21:15.328Z,88.65
2022-12-18T03:22:15.405Z,88.65
2022-12-18T03:23:15.493Z,88.72
2022-12-18T03:24:15.555Z,88.61
2022-12-18T03:25:15.639Z,88.40
2022-12-18T03:26:15.718Z,88.29
2022-12-18T03:27:15.774Z,88.29
2022-12-18T03:28:15.855Z,88.09
2022-12-18T03:29:15.937Z,88.09
2022-12-18T03:30:16.219Z,87.98
2022-12-18T03:31:16.202Z,87.87
2022-12-18T03:32:16.202Z,88.19
2022-12-18T03:33:16.252Z,88.23
2022-12-18T03:34:16.333Z,88.44
2022-12-18T03:35:16.409Z,88.55
2022-12-18T03:36:16.486Z,88.65
2022-12-18T03:37:16.556Z,88.76
2022-12-18T03:38:16.645Z,88.87
2022-12-18T03:39:16.702Z,88.87
2022-12-18T03:40:16.816Z,88.76
2022-12-18T03:41:16.870Z,88.87
2022-12-18T03:42:16.979Z,88.87
2022-12-18T03:43:17.027Z,88.97
2022-12-18T03:44:17.115Z,89.08
2022-12-18T03:45:17.180Z,89.18
2022-12-18T03:46:17.306Z,89.08
2022-12-18T03:47:17.309Z,89.08
2022-12-18T03:48:17.389Z,88.93
2022-12-18T03:49:17.448Z,88.82
2022-12-18T03:50:17.569Z,88.82
2022-12-18T03:51:17.623Z,88.82
2022-12-18T03:52:17.713Z,88.68
2022-12-18T03:53:17.758Z,88.57
2022-12-18T03:54:17.843Z,88.47
2022-12-18T03:55:17.911Z,88.26
2022-12-18T03:56:17.992Z,88.26
2022-12-18T03:57:18.054Z,88.26
2022-12-18T03:58:18.135Z,88.21
2022-12-18T03:59:18.192Z,88.11
2022-12-18T04:00:18.305Z,88.11
2022-12-18T04:01:18.498Z,88.11
2022-12-18T04:02:18.549Z,88.11
2022-12-18T04:03:20.624Z,87.90
2022-12-18T04:04:18.627Z,87.90
2022-12-18T04:05:18.694Z,87.75
2022-12-18T04:06:18.753Z,87.75
2022-12-18T04:07:18.807Z,87.65
2022-12-18T04:08:18.906Z,87.54
2022-12-18T04:09:18.991Z,87.43
2022-12-18T04:10:19.102Z,87.23
2022-12-18T04:11:19.124Z,87.12
2022-12-18T04:12:19.224Z,86.98
2022-12-18T04:13:19.278Z,86.69
2022-12-18T04:14:19.358Z,86.76
2022-12-18T04:15:19.425Z,86.76
2022-12-18T04:16:19.558Z,86.76
2022-12-18T04:17:19.598Z,86.76
2022-12-18T04:18:19.676Z,86.61
2022-12-18T04:19:19.725Z,86.41
2022-12-18T04:20:19.838Z,86.19
2022-12-18T04:21:19.888Z,85.98
2022-12-18T04:22:19.987Z,85.88
2022-12-18T04:23:20.045Z,85.84
2022-12-18T04:24:20.144Z,85.66
2022-12-18T04:25:20.219Z,85.63
2022-12-18T04:26:20.292Z,85.73
2022-12-18T04:27:20.348Z,85.63
2022-12-18T04:28:20.429Z,85.56
2022-12-18T04:29:20.495Z,85.63
2022-12-18T04:30:20.591Z,85.77
2022-12-18T04:31:20.658Z,85.98
2022-12-18T04:32:20.748Z,86.09
2022-12-18T04:33:20.794Z,86.51
2022-12-18T04:34:20.896Z,86.61
2022-12-18T04:35:20.972Z,86.41
2022-12-18T04:36:21.031Z,86.19
2022-12-18T04:37:21.085Z,86.09
2022-12-18T04:38:21.178Z,86.09
2022-12-18T04:39:21.222Z,86.09
2022-12-18T04:40:21.312Z,86.19
2022-12-18T04:41:21.359Z,86.19
2022-12-18T04:42:21.459Z,86.19
2022-12-18T04:43:21.585Z,86.23
2022-12-18T04:44:21.595Z,86.34
2022-12-18T04:45:21.658Z,86.34
2022-12-18T04:46:21.831Z,86.55
2022-12-18T04:47:21.799Z,86.66
2022-12-18T04:48:21.895Z,86.87
2022-12-18T04:49:21.976Z,86.76
2022-12-18T04:50:22.073Z,86.80
2022-12-18T04:51:26.461Z,86.91
2022-12-18T04:52:23.614Z,87.12
2022-12-18T04:53:22.279Z,87.33
2022-12-18T04:54:22.358Z,87.54
2022-12-18T04:55:22.441Z,87.54
2022-12-18T04:56:22.514Z,87.43
2022-12-18T04:57:22.593Z,87.40
2022-12-18T04:58:22.671Z,87.29
2022-12-18T04:59:22.731Z,87.08
2022-12-18T05:00:22.826Z,87.01
2022-12-18T05:01:23.038Z,87.12
2022-12-18T05:02:23.061Z,87.23
2022-12-18T05:03:23.107Z,87.43
2022-12-18T05:04:23.125Z,87.43
2022-12-18T05:05:23.194Z,87.33
2022-12-18T05:06:23.275Z,87.43
2022-12-18T05:07:23.330Z,87.33
2022-12-18T05:08:23.428Z,87.43
2022-12-18T05:09:23.506Z,87.54
2022-12-18T05:10:23.600Z,87.75
2022-12-18T05:11:23.649Z,87.86
2022-12-18T05:12:23.865Z,87.96
2022-12-18T05:13:23.795Z,88.07
2022-12-18T05:14:23.874Z,88.07
2022-12-18T05:15:23.944Z,88.07
2022-12-18T05:16:24.074Z,88.07
2022-12-18T05:17:24.106Z,87.86
2022-12-18T05:18:24.185Z,87.86
2022-12-18T05:19:24.242Z,87.86
2022-12-18T05:20:24.341Z,87.86
2022-12-18T05:21:24.400Z,87.86
2022-12-18T05:22:24.478Z,87.86
2022-12-18T05:23:24.566Z,87.75
2022-12-18T05:24:24.644Z,87.75
2022-12-18T05:25:24.720Z,87.96
2022-12-18T05:26:24.775Z,88.03
2022-12-18T05:27:24.843Z,87.82
2022-12-18T05:28:24.911Z,87.61
2022-12-18T05:29:24.979Z,87.40
2022-12-18T05:30:25.075Z,87.25
2022-12-18T05:31:25.168Z,87.04
2022-12-18T05:32:25.220Z,86.93
2022-12-18T05:33:25.326Z,86.83
2022-12-18T05:34:25.386Z,86.72
2022-12-18T05:35:25.482Z,86.72
2022-12-18T05:36:25.528Z,86.93
2022-12-18T05:37:25.611Z,86.83
2022-12-18T05:38:25.657Z,86.72
2022-12-18T05:39:25.739Z,86.51
2022-12-18T05:40:25.804Z,86.36
2022-12-18T05:41:25.888Z,86.30
2022-12-18T05:42:25.940Z,86.26
2022-12-18T05:43:26.019Z,86.26
2022-12-18T05:44:26.075Z,86.26
2022-12-18T05:45:26.170Z,86.05
2022-12-18T05:46:26.276Z,86.16
2022-12-18T05:47:26.289Z,86.16
2022-12-18T05:48:26.345Z,86.05
2022-12-18T05:49:26.432Z,86.05
2022-12-18T05:50:26.492Z,86.09
2022-12-18T05:51:26.570Z,86.30
2022-12-18T05:52:26.626Z,86.30
2022-12-18T05:53:26.707Z,86.51
2022-12-18T05:54:26.761Z,86.61
2022-12-18T05:55:26.885Z,86.47
2022-12-18T05:56:26.935Z,86.41
2022-12-18T05:57:27.036Z,86.30
2022-12-18T05:58:27.089Z,86.41
2022-12-18T05:59:27.192Z,86.61
2022-12-18T06:00:27.291Z,86.61
2022-12-18T06:01:27.600Z,86.58
2022-12-18T06:02:27.582Z,86.58
2022-12-18T06:03:33.571Z,86.58
2022-12-18T06:04:27.570Z,86.47
2022-12-18T06:05:27.671Z,86.26
2022-12-18T06:06:27.732Z,86.05
2022-12-18T06:07:27.827Z,86.05
2022-12-18T06:08:27.884Z,86.05
2022-12-18T06:09:27.964Z,85.84
2022-12-18T06:10:28.039Z,85.94
2022-12-18T06:11:28.116Z,85.84
2022-12-18T06:12:28.173Z,86.16
2022-12-18T06:13:28.252Z,86.26
2022-12-18T06:14:28.333Z,86.16
2022-12-18T06:15:28.446Z,86.05
2022-12-18T06:16:28.604Z,85.94
2022-12-18T06:17:28.576Z,86.05
2022-12-18T06:18:28.629Z,86.01
2022-12-18T06:19:28.718Z,85.80
2022-12-18T06:20:33.241Z,85.63
2022-12-18T06:21:28.864Z,85.52
2022-12-18T06:22:28.920Z,85.52
2022-12-18T06:23:29.017Z,85.63
2022-12-18T06:24:29.075Z,85.73
2022-12-18T06:25:29.178Z,85.73
2022-12-18T06:26:29.227Z,85.73
2022-12-18T06:27:29.336Z,85.73
2022-12-18T06:28:29.386Z,85.73
2022-12-18T06:29:29.486Z,85.73
2022-12-18T06:30:29.572Z,85.69
2022-12-18T06:31:29.680Z,85.59
2022-12-18T06:32:29.735Z,85.38
2022-12-18T06:33:29.849Z,85.48
2022-12-18T06:34:29.901Z,85.59
2022-12-18T06:35:30.004Z,85.59
2022-12-18T06:36:30.037Z,85.66
2022-12-18T06:37:30.119Z,85.44
2022-12-18T06:38:30.173Z,85.13
2022-12-18T06:39:30.274Z,85.16
2022-12-18T06:40:30.340Z,85.27
2022-12-18T06:41:30.418Z,85.38
2022-12-18T06:42:30.476Z,85.27
2022-12-18T06:43:30.561Z,85.27
2022-12-18T06:44:30.648Z,85.16
2022-12-18T06:45:30.775Z,85.16
2022-12-18T06:46:30.815Z,85.16
2022-12-18T06:47:30.916Z,85.06
2022-12-18T06:48:30.969Z,84.95
2022-12-18T06:49:31.070Z,84.95
2022-12-18T06:50:31.139Z,84.99
2022-12-18T06:51:31.227Z,85.31
2022-12-18T06:52:31.276Z,85.63
2022-12-18T06:53:31.358Z,85.63
2022-12-18T06:54:31.413Z,85.73
2022-12-18T06:55:31.518Z,85.94
2022-12-18T06:56:31.567Z,85.84
2022-12-18T06:57:31.654Z,85.73
2022-12-18T06:58:31.708Z,85.88
2022-12-18T06:59:31.857Z,85.98
2022-12-18T07:00:31.900Z,86.19
2022-12-18T07:01:32.083Z,86.26
2022-12-18T07:02:32.059Z,86.16
2022-12-18T07:03:32.066Z,86.16
2022-12-18T07:04:32.177Z,86.05
2022-12-18T07:05:32.250Z,85.84
2022-12-18T07:06:32.300Z,85.84
2022-12-18T07:07:32.381Z,85.84
2022-12-18T07:08:32.478Z,85.84
2022-12-18T07:09:32.528Z,85.94
2022-12-18T07:10:32.596Z,86.05
2022-12-18T07:11:32.662Z,85.94
2022-12-18T07:12:32.718Z,85.59
2022-12-18T07:13:32.811Z,85.48
2022-12-18T07:14:32.867Z,85.31
2022-12-18T07:15:32.978Z,85.41
2022-12-18T07:16:33.063Z,85.38
2022-12-18T07:17:33.123Z,85.31
2022-12-18T07:18:33.180Z,85.31
2022-12-18T07:19:33.264Z,85.41
2022-12-18T07:20:33.348Z,85.41
2022-12-18T07:21:33.428Z,85.63
2022-12-18T07:22:33.484Z,85.73
2022-12-18T07:23:33.700Z,85.84
2022-12-18T07:24:33.624Z,85.84
2022-12-18T07:25:33.736Z,85.84
2022-12-18T07:26:33.792Z,85.84
2022-12-18T07:27:33.869Z,85.73
2022-12-18T07:28:33.956Z,85.63
2022-12-18T07:29:34.030Z,85.73
2022-12-18T07:30:34.095Z,85.63
2022-12-18T07:31:34.179Z,85.38
2022-12-18T07:32:34.211Z,85.27
2022-12-18T07:33:34.292Z,85.27
2022-12-18T07:34:34.340Z,85.16
2022-12-18T07:35:34.467Z,85.06
2022-12-18T07:36:34.524Z,85.06
2022-12-18T07:37:34.612Z,84.84
2022-12-18T07:38:34.667Z,84.89
2022-12-18T07:39:34.746Z,85.21
2022-12-18T07:40:34.828Z,85.21
2022-12-18T07:41:34.910Z,85.31
2022-12-18T07:42:34.996Z,85.63
2022-12-18T07:43:35.077Z,85.84
2022-12-18T07:44:35.222Z,85.94
2022-12-18T07:45:35.316Z,85.84
2022-12-18T07:46:35.334Z,85.73
2022-12-18T07:47:35.409Z,85.94
2022-12-18T07:48:35.456Z,86.19
2022-12-18T07:49:35.548Z,86.30
2022-12-18T07:50:35.623Z,86.30
2022-12-18T07:51:35.699Z,86.41
2022-12-18T07:52:35.750Z,86.47
2022-12-18T07:53:35.842Z,86.36
2022-12-18T07:54:35.911Z,86.36
2022-12-18T07:55:59.924Z,86.11
2022-12-18T07:56:36.063Z,86.01
2022-12-18T07:57:55.171Z,85.66
2022-12-18T07:58:36.205Z,84.88
2022-12-18T07:59:36.296Z,84.35
2022-12-18T08:00:36.360Z,83.78
2022-12-18T08:01:36.627Z,83.04
2022-12-18T08:02:36.678Z,82.59
2022-12-18T08:03:37.002Z,82.17
2022-12-18T08:04:36.676Z,81.74
2022-12-18T08:05:36.777Z,81.63
2022-12-18T08:06:36.835Z,81.43
2022-12-18T08:07:36.919Z,81.32
2022-12-18T08:08:36.972Z,81.57
2022-12-18T08:09:37.051Z,81.78
2022-12-18T08:10:37.121Z,81.88
2022-12-18T08:11:37.205Z,81.99
2022-12-18T08:12:37.255Z,82.31
2022-12-18T08:13:37.527Z,82.52
2022-12-18T08:14:37.418Z,82.52
2022-12-18T08:15:37.502Z,82.41
2022-12-18T08:16:37.595Z,82.27
2022-12-18T08:17:37.645Z,82.06
2022-12-18T08:18:37.729Z,82.17
2022-12-18T08:19:37.807Z,82.06
2022-12-18T08:20:37.887Z,81.95
2022-12-18T08:21:37.951Z,81.74
2022-12-18T08:22:38.004Z,81.74
2022-12-18T08:23:42.627Z,82.06
2022-12-18T08:24:38.171Z,82.17
2022-12-18T08:25:38.270Z,82.37
2022-12-18T08:26:38.322Z,82.69
2022-12-18T08:27:38.406Z,82.65
2022-12-18T08:28:38.464Z,82.34
2022-12-18T08:29:38.556Z,81.92
2022-12-18T08:30:38.701Z,81.92
2022-12-18T08:31:38.758Z,81.35
2022-12-18T08:32:38.758Z,81.14
2022-12-18T08:33:39.410Z,80.79
2022-12-18T08:34:38.903Z,80.22
2022-12-18T08:35:45.460Z,79.80
2022-12-18T08:36:39.057Z,79.03
2022-12-18T08:37:39.120Z,78.50
2022-12-18T08:38:39.186Z,78.47
2022-12-18T08:39:39.267Z,77.73
2022-12-18T08:40:39.378Z,77.84
2022-12-18T08:41:39.455Z,77.62
2022-12-18T08:42:39.505Z,77.42
2022-12-18T08:43:40.160Z,77.45
2022-12-18T08:44:39.662Z,77.87
2022-12-18T08:45:39.846Z,78.05
2022-12-18T08:46:39.904Z,77.87
2022-12-18T08:47:39.914Z,77.98
2022-12-18T08:48:39.970Z,78.05
2022-12-18T08:49:40.051Z,77.84
2022-12-18T08:50:40.130Z,77.45
2022-12-18T08:51:40.201Z,76.33
2022-12-18T08:52:40.261Z,74.87
2022-12-18T08:53:40.913Z,72.91
2022-12-18T08:54:40.417Z,70.89
2022-12-18T08:55:40.518Z,69.88
2022-12-18T08:56:40.554Z,68.25
2022-12-18T08:57:40.626Z,67.46
2022-12-18T08:58:40.688Z,66.28
2022-12-18T08:59:40.777Z,65.10
2022-12-18T09:00:40.866Z,64.79
2022-12-18T09:01:41.081Z,64.42
2022-12-18T09:02:41.187Z,63.48
2022-12-18T09:03:41.553Z,63.17
2022-12-18T09:04:41.188Z,62.93
2022-12-18T09:05:41.286Z,62.79
2022-12-18T09:06:41.359Z,61.86
2022-12-18T09:07:41.461Z,61.88
2022-12-18T09:08:41.935Z,62.23
2022-12-18T09:09:41.612Z,62.98
2022-12-18T09:10:43.370Z,63.40
2022-12-18T09:11:41.787Z,63.78
2022-12-18T09:12:41.862Z,64.43
2022-12-18T09:13:42.600Z,64.87
2022-12-18T09:14:42.031Z,66.06
2022-12-18T09:15:42.159Z,66.74
2022-12-18T09:16:42.248Z,67.90
2022-12-18T09:17:42.266Z,67.93
2022-12-18T09:18:42.811Z,68.31
2022-12-18T09:19:42.441Z,68.00
2022-12-18T09:20:42.531Z,68.27
2022-12-18T09:21:47.737Z,68.72
2022-12-18T09:22:42.659Z,69.87
2022-12-18T09:23:42.742Z,69.98
2022-12-18T09:24:42.815Z,69.53
2022-12-18T09:25:42.908Z,68.66
2022-12-18T09:26:43.660Z,68.10
2022-12-18T09:27:43.026Z,67.21
2022-12-18T09:28:43.592Z,66.31
2022-12-18T09:29:43.193Z,65.34
2022-12-18T09:30:43.350Z,64.09
2022-12-18T09:31:43.384Z,63.78
2022-12-18T09:32:43.460Z,64.12
2022-12-18T09:33:43.530Z,64.61
2022-12-18T09:34:43.603Z,63.95
2022-12-18T09:35:43.718Z,63.43
2022-12-18T09:36:43.809Z,64.29
2022-12-18T09:37:43.840Z,64.32
2022-12-18T09:38:44.041Z,64.87
2022-12-18T09:39:43.992Z,65.98
2022-12-18T09:40:44.091Z,66.64
2022-12-18T09:41:44.166Z,67.61
2022-12-18T09:42:44.251Z,68.59
2022-12-18T09:43:44.343Z,69.24
2022-12-18T09:44:45.626Z,69.45
2022-12-18T09:45:44.511Z,69.35
2022-12-18T09:46:44.647Z,69.98
2022-12-18T09:47:44.662Z,71.26
2022-12-18T09:48:44.938Z,71.69
2022-12-18T09:49:44.798Z,71.16
2022-12-18T09:50:44.909Z,71.16
2022-12-18T09:51:44.951Z,71.61
2022-12-18T09:52:45.051Z,72.03
2022-12-18T09:53:45.135Z,72.38
2022-12-18T09:54:45.231Z,72.45
2022-12-18T09:55:45.339Z,72.56
2022-12-18T09:56:45.400Z,72.14
2022-12-18T09:57:45.446Z,72.59
2022-12-18T09:58:45.533Z,73.11
2022-12-18T09:59:45.588Z,73.22
2022-12-18T10:00:45.680Z,73.57
2022-12-18T10:01:47.353Z,73.78
2022-12-18T10:02:46.016Z,73.99
2022-12-18T10:03:45.880Z,74.09
2022-12-18T10:04:46.009Z,74.55
2022-12-18T10:05:46.036Z,74.97
2022-12-18T10:06:46.112Z,75.28
2022-12-18T10:07:46.189Z,75.60
2022-12-18T10:08:46.284Z,75.60
2022-12-18T10:09:46.346Z,75.38
2022-12-18T10:10:46.450Z,75.49
2022-12-18T10:11:46.519Z,75.28
2022-12-18T10:12:46.580Z,75.07
2022-12-18T10:13:46.637Z,75.38
2022-12-18T10:14:46.732Z,75.18
2022-12-18T10:15:46.881Z,74.97
2022-12-18T10:16:46.865Z,75.07
2022-12-18T10:17:46.935Z,75.18
2022-12-18T10:18:47.008Z,75.28
2022-12-18T10:19:47.090Z,75.70
2022-12-18T10:20:47.181Z,75.67
2022-12-18T10:21:47.220Z,75.25
2022-12-18T10:22:47.302Z,75.04
2022-12-18T10:23:48.567Z,75.25
2022-12-18T10:24:47.445Z,75.28
2022-12-18T10:25:47.541Z,75.67
2022-12-18T10:26:47.602Z,75.56
2022-12-18T10:27:47.673Z,75.78
2022-12-18T10:28:47.762Z,75.60
2022-12-18T10:29:47.813Z,75.49
2022-12-18T10:30:47.973Z,76.29
2022-12-18T10:31:47.958Z,75.98
2022-12-18T10:32:48.046Z,76.09
2022-12-18T10:33:48.139Z,75.98
2022-12-18T10:34:48.238Z,75.56
2022-12-18T10:35:48.310Z,75.35
2022-12-18T10:36:48.382Z,75.14
2022-12-18T10:37:48.439Z,74.93
2022-12-18T10:38:48.523Z,74.93
2022-12-18T10:39:48.588Z,75.28
2022-12-18T10:40:48.696Z,76.02
2022-12-18T10:41:48.741Z,76.23
2022-12-18T10:42:48.832Z,75.81
2022-12-18T10:43:48.900Z,75.70
2022-12-18T10:44:48.992Z,76.02
2022-12-18T10:45:49.072Z,76.02
2022-12-18T10:46:49.227Z,76.33
2022-12-18T10:47:49.197Z,76.02
2022-12-18T10:48:49.288Z,76.02
2022-12-18T10:49:49.344Z,76.51
2022-12-18T10:51:10.228Z,76.65
2022-12-18T10:51:49.508Z,76.54
2022-12-18T10:52:49.602Z,76.19
2022-12-18T10:53:49.655Z,75.78
2022-12-18T10:54:49.749Z,75.78
2022-12-18T10:55:49.844Z,75.46
2022-12-18T10:56:49.914Z,74.62
2022-12-18T10:57:49.974Z,74.73
2022-12-18T10:58:50.054Z,75.35
2022-12-18T10:59:50.124Z,75.88
2022-12-18T11:00:50.222Z,75.56
2022-12-18T11:01:50.510Z,75.04
2022-12-18T11:02:50.576Z,74.58
2022-12-18T11:03:50.526Z,73.99
2022-12-18T11:04:50.533Z,74.30
2022-12-18T11:05:50.616Z,74.83
2022-12-18T11:06:50.674Z,74.93
2022-12-18T11:07:50.726Z,75.14
2022-12-18T11:08:50.817Z,75.14
2022-12-18T11:09:50.908Z,75.01
2022-12-18T11:10:51.001Z,74.69
2022-12-18T11:11:51.053Z,74.62
2022-12-18T11:12:51.133Z,74.62
2022-12-18T11:13:51.185Z,74.51
2022-12-18T11:14:51.268Z,74.73
2022-12-18T11:15:51.408Z,75.35
2022-12-18T11:17:24.333Z,75.35
2022-12-18T11:17:51.481Z,75.14
2022-12-18T11:18:51.567Z,75.04
2022-12-18T11:19:51.618Z,75.56
2022-12-18T11:20:55.595Z,75.78
2022-12-18T11:21:51.778Z,75.46
2022-12-18T11:22:51.859Z,75.56
2022-12-18T11:23:51.913Z,75.88
2022-12-18T11:25:14.950Z,75.88
2022-12-18T11:25:52.091Z,75.25
2022-12-18T11:26:57.823Z,75.25
2022-12-18T11:27:52.237Z,75.88
2022-12-18T11:28:52.323Z,75.56
2022-12-18T11:29:52.379Z,75.25
2022-12-18T11:30:52.580Z,74.73
2022-12-18T11:31:52.545Z,74.83
2022-12-18T11:32:52.635Z,75.04
2022-12-18T11:34:19.675Z,75.25
2022-12-18T11:34:58.818Z,75.35
2022-12-18T11:35:52.895Z,75.56
2022-12-18T11:36:52.958Z,75.35
2022-12-18T11:37:53.013Z,75.04
2022-12-18T11:38:53.096Z,75.60
2022-12-18T11:39:53.146Z,75.70
2022-12-18T11:40:53.254Z,75.67
2022-12-18T11:41:53.304Z,75.91
2022-12-18T11:42:53.384Z,75.98
2022-12-18T11:43:53.438Z,76.51
2022-12-18T11:44:53.533Z,76.19
2022-12-18T11:45:53.625Z,75.91
2022-12-18T11:46:53.756Z,75.98
2022-12-18T11:47:53.747Z,75.98
2022-12-18T11:48:53.843Z,75.67
2022-12-18T11:49:53.908Z,75.81
2022-12-18T11:50:54.001Z,75.70
2022-12-18T11:51:54.051Z,75.91
2022-12-18T11:52:57.495Z,76.02
2022-12-18T11:53:54.230Z,76.02
2022-12-18T11:54:54.294Z,76.12
2022-12-18T11:55:54.361Z,76.12
2022-12-18T11:56:54.434Z,76.02
2022-12-18T11:57:54.495Z,76.12
2022-12-18T11:58:54.586Z,76.23
2022-12-18T11:59:54.638Z,76.54
2022-12-18T12:00:54.737Z,76.54
2022-12-18T12:01:54.956Z,76.23
2022-12-18T12:02:54.972Z,76.54
2022-12-18T12:03:55.019Z,76.43
2022-12-18T12:04:55.069Z,75.91
2022-12-18T12:05:55.144Z,76.33
2022-12-18T12:07:00.029Z,76.43
2022-12-18T12:07:55.293Z,76.86
2022-12-18T12:08:55.382Z,77.28
2022-12-18T12:09:55.434Z,77.07
2022-12-18T12:10:55.542Z,76.43
2022-12-18T12:11:55.592Z,76.86
2022-12-18T12:12:55.677Z,77.17
2022-12-18T12:13:55.727Z,77.17
2022-12-18T12:14:55.817Z,76.61
2022-12-18T12:15:55.931Z,76.12
2022-12-18T12:16:55.967Z,76.65
2022-12-18T12:17:56.020Z,76.72
2022-12-18T12:18:56.100Z,76.54
2022-12-18T12:19:56.170Z,76.75
2022-12-18T12:20:56.279Z,76.75
2022-12-18T12:21:56.326Z,76.75
2022-12-18T12:22:56.415Z,76.86
2022-12-18T12:23:56.504Z,76.86
2022-12-18T12:24:56.587Z,76.65
2022-12-18T12:25:56.660Z,76.86
2022-12-18T12:26:56.733Z,76.54
2022-12-18T12:27:56.786Z,76.65
2022-12-18T12:28:56.870Z,76.54
2022-12-18T12:29:56.918Z,76.43
2022-12-18T12:30:57.022Z,76.43
2022-12-18T12:31:57.153Z,76.75
2022-12-18T12:32:57.168Z,77.07
2022-12-18T12:33:57.224Z,76.75
2022-12-18T12:35:00.979Z,76.86
2022-12-18T12:35:57.408Z,76.43
2022-12-18T12:36:57.467Z,76.65
2022-12-18T12:37:57.514Z,76.33
2022-12-18T12:38:57.599Z,76.54
2022-12-18T12:39:57.655Z,76.54
2022-12-18T12:41:02.870Z,76.19
2022-12-18T12:41:57.814Z,76.75
2022-12-18T12:42:57.892Z,76.65
2022-12-18T12:43:57.972Z,76.54
2022-12-18T12:44:58.066Z,76.43
2022-12-18T12:45:58.180Z,76.19
2022-12-18T12:46:58.211Z,76.19
2022-12-18T12:47:58.302Z,76.61
2022-12-18T12:48:58.383Z,76.82
2022-12-18T12:49:58.447Z,76.72
2022-12-18T12:50:58.554Z,76.40
2022-12-18T12:51:58.610Z,76.54
2022-12-18T12:52:58.694Z,76.54
2022-12-18T12:53:58.784Z,76.82